Terminal Aerodrome Forecast
Issued by NWS Louisville, KY

Current Version | Previous Version | Text Only | Print | Product List | Glossary On
Versions: 1 2 3 4 5 6 7 8 9 10 11 12 13 14 15 16 17 18
000
FTUS43 KLMK 292300
TAFBWG
TAF
KBWG 292321Z 3000/3024 18005KT P6SM FEW250
     FM301400 19014G20KT P6SM VCSH BKN040 PROB30 3018/3022 5SM -TSRA
      BKN030CB=

USA.gov is the U.S. government's official web portal to all federal, state and local government web resources and services.